sensor_id;sensor_type;location;lat;lon;timestamp;pressure;altitude;pressure_sealevel;temperature;humidity
15880;BME280;61999;51.514;14.614;2023-02-03T00:01:46;100712.16;;;-6.19;78.72
15880;BME280;61999;51.514;14.614;2023-02-03T00:04:14;100707.84;;;-6.40;79.86
15880;BME280;61999;51.514;14.614;2023-02-03T00:06:43;100704.38;;;-6.64;81.80
15880;BME280;61999;51.514;14.614;2023-02-03T00:09:14;100708.63;;;-6.72;83.23
15880;BME280;61999;51.514;14.614;2023-02-03T00:11:43;100706.06;;;-6.73;83.82
15880;BME280;61999;51.514;14.614;2023-02-03T00:14:11;100707.72;;;-6.86;85.46
15880;BME280;61999;51.514;14.614;2023-02-03T00:16:39;100701.78;;;-6.77;86.07
15880;BME280;61999;51.514;14.614;2023-02-03T00:19:07;100702.72;;;-6.42;85.01
15880;BME280;61999;51.514;14.614;2023-02-03T00:21:35;100712.06;;;-6.70;85.43
15880;BME280;61999;51.514;14.614;2023-02-03T00:24:04;100702.66;;;-6.72;86.38
15880;BME280;61999;51.514;14.614;2023-02-03T00:26:33;100698.34;;;-6.87;87.29
15880;BME280;61999;51.514;14.614;2023-02-03T00:29:01;100695.78;;;-6.90;87.94
15880;BME280;61999;51.514;14.614;2023-02-03T00:31:30;100684.66;;;-6.86;88.46
15880;BME280;61999;51.514;14.614;2023-02-03T00:33:58;100694.91;;;-6.86;88.85
15880;BME280;61999;51.514;14.614;2023-02-03T00:36:26;100670.16;;;-6.75;88.56
15880;BME280;61999;51.514;14.614;2023-02-03T00:38:54;100671.91;;;-6.65;87.72
15880;BME280;61999;51.514;14.614;2023-02-03T00:41:27;100668.50;;;-6.54;87.46
15880;BME280;61999;51.514;14.614;2023-02-03T00:43:57;100655.69;;;-5.96;85.63
15880;BME280;61999;51.514;14.614;2023-02-03T00:46:25;100651.28;;;-5.46;82.83
15880;BME280;61999;51.514;14.614;2023-02-03T00:48:53;100651.94;;;-5.00;80.20
15880;BME280;61999;51.514;14.614;2023-02-03T00:51:21;100642.84;;;-4.25;77.02
15880;BME280;61999;51.514;14.614;2023-02-03T00:53:49;100638.00;;;-4.65;75.63
15880;BME280;61999;51.514;14.614;2023-02-03T00:56:17;100638.41;;;-5.39;77.15
15880;BME280;61999;51.514;14.614;2023-02-03T00:58:46;100624.03;;;-6.03;80.94
15880;BME280;61999;51.514;14.614;2023-02-03T01:01:15;100622.31;;;-6.14;82.20
15880;BME280;61999;51.514;14.614;2023-02-03T01:03:43;100610.34;;;-6.09;83.10
15880;BME280;61999;51.514;14.614;2023-02-03T01:06:15;100605.16;;;-5.83;82.73
15880;BME280;61999;51.514;14.614;2023-02-03T01:08:44;100595.81;;;-6.04;83.24
15880;BME280;61999;51.514;14.614;2023-02-03T01:11:15;100604.34;;;-6.08;83.40
15880;BME280;61999;51.514;14.614;2023-02-03T01:13:44;100586.44;;;-6.30;84.23
15880;BME280;61999;51.514;14.614;2023-02-03T01:16:19;100585.56;;;-6.35;85.60
15880;BME280;61999;51.514;14.614;2023-02-03T01:18:48;100582.13;;;-6.17;84.77
15880;BME280;61999;51.514;14.614;2023-02-03T01:21:20;100577.91;;;-6.44;85.71
15880;BME280;61999;51.514;14.614;2023-02-03T01:23:50;100561.66;;;-6.77;87.44
15880;BME280;61999;51.514;14.614;2023-02-03T01:26:21;100550.56;;;-6.67;88.21
15880;BME280;61999;51.514;14.614;2023-02-03T01:28:51;100549.69;;;-6.63;87.68
15880;BME280;61999;51.514;14.614;2023-02-03T01:31:24;100542.88;;;-6.79;88.19
15880;BME280;61999;51.514;14.614;2023-02-03T01:33:54;100534.31;;;-6.59;88.24
15880;BME280;61999;51.514;14.614;2023-02-03T01:36:25;100509.53;;;-6.70;88.33
15880;BME280;61999;51.514;14.614;2023-02-03T01:38:54;100513.72;;;-6.26;86.52
15880;BME280;61999;51.514;14.614;2023-02-03T01:41:26;100529.09;;;-6.20;85.80
15880;BME280;61999;51.514;14.614;2023-02-03T01:43:58;100541.06;;;-6.09;84.79
15880;BME280;61999;51.514;14.614;2023-02-03T01:46:32;100545.41;;;-6.42;85.06
15880;BME280;61999;51.514;14.614;2023-02-03T01:49:08;100538.53;;;-6.34;86.03
15880;BME280;61999;51.514;14.614;2023-02-03T01:51:41;100534.31;;;-6.44;86.53
15880;BME280;61999;51.514;14.614;2023-02-03T01:54:17;100529.13;;;-6.29;86.34
15880;BME280;61999;51.514;14.614;2023-02-03T01:56:52;100525.72;;;-6.25;85.55
15880;BME280;61999;51.514;14.614;2023-02-03T01:59:24;100512.84;;;-6.09;85.31
15880;BME280;61999;51.514;14.614;2023-02-03T02:01:55;100507.72;;;-6.16;84.87
15880;BME280;61999;51.514;14.614;2023-02-03T02:04:31;100512.00;;;-6.18;84.84
15880;BME280;61999;51.514;14.614;2023-02-03T02:07:03;100508.53;;;-6.06;84.64
15880;BME280;61999;51.514;14.614;2023-02-03T02:09:33;100505.06;;;-5.85;83.51
15880;BME280;61999;51.514;14.614;2023-02-03T02:12:02;100501.72;;;-6.02;84.34
15880;BME280;61999;51.514;14.614;2023-02-03T02:14:30;100503.47;;;-6.17;84.47
15880;BME280;61999;51.514;14.614;2023-02-03T02:17:09;100491.25;;;-5.59;84.00
15880;BME280;61999;51.514;14.614;2023-02-03T02:20:08;100480.09;;;-4.49;80.82
15880;BME280;61999;51.514;14.614;2023-02-03T02:23:06;100466.66;;;-4.78;77.82
15880;BME280;61999;51.514;14.614;2023-02-03T02:29:25;100462.22;;;-5.74;82.14
15880;BME280;61999;51.514;14.614;2023-02-03T02:32:04;100452.50;;;-5.27;82.06
15880;BME280;61999;51.514;14.614;2023-02-03T02:34:50;100435.25;;;-5.14;80.58
15880;BME280;61999;51.514;14.614;2023-02-03T02:37:36;100434.88;;;-4.70;79.01
15880;BME280;61999;51.514;14.614;2023-02-03T02:40:16;100426.03;;;-5.40;80.15
15880;BME280;61999;51.514;14.614;2023-02-03T02:43:00;100426.13;;;-5.52;81.65
15880;BME280;61999;51.514;14.614;2023-02-03T02:45:35;100420.31;;;-5.80;83.13
15880;BME280;61999;51.514;14.614;2023-02-03T02:48:13;100419.50;;;-5.87;84.55
15880;BME280;61999;51.514;14.614;2023-02-03T02:50:46;100410.50;;;-5.21;84.40
15880;BME280;61999;51.514;14.614;2023-02-03T02:53:20;100403.56;;;-5.13;84.22
15880;BME280;61999;51.514;14.614;2023-02-03T02:55:54;100404.56;;;-5.31;83.06
15880;BME280;61999;51.514;14.614;2023-02-03T02:58:26;100410.97;;;-5.92;85.56
15880;BME280;61999;51.514;14.614;2023-02-03T03:00:56;100392.75;;;-5.54;86.23
15880;BME280;61999;51.514;14.614;2023-02-03T03:03:26;100384.88;;;-5.31;86.56
15880;BME280;61999;51.514;14.614;2023-02-03T03:05:58;100377.50;;;-5.74;87.49
15880;BME280;61999;51.514;14.614;2023-02-03T03:08:38;100369.78;;;-5.71;87.10
15880;BME280;61999;51.514;14.614;2023-02-03T03:11:08;100359.03;;;-5.15;86.58
15880;BME280;61999;51.514;14.614;2023-02-03T03:13:45;100350.69;;;-5.39;85.45
15880;BME280;61999;51.514;14.614;2023-02-03T03:16:17;100345.69;;;-5.56;86.94
15880;BME280;61999;51.514;14.614;2023-02-03T03:18:54;100346.94;;;-6.15;89.28
15880;BME280;61999;51.514;14.614;2023-02-03T03:21:27;100345.31;;;-6.31;91.35
15880;BME280;61999;51.514;14.614;2023-02-03T03:24:05;100332.63;;;-6.61;92.80
15880;BME280;61999;51.514;14.614;2023-02-03T03:26:39;100334.41;;;-6.81;94.87
15880;BME280;61999;51.514;14.614;2023-02-03T03:29:17;100332.78;;;-7.19;96.43
15880;BME280;61999;51.514;14.614;2023-02-03T03:31:47;100336.22;;;-7.17;97.71
15880;BME280;61999;51.514;14.614;2023-02-03T03:34:18;100328.50;;;-7.08;99.07
15880;BME280;61999;51.514;14.614;2023-02-03T03:36:53;100325.88;;;-6.85;98.47
15880;BME280;61999;51.514;14.614;2023-02-03T03:39:28;100316.38;;;-6.58;98.36
15880;BME280;61999;51.514;14.614;2023-02-03T03:42:08;100318.84;;;-6.36;97.08
15880;BME280;61999;51.514;14.614;2023-02-03T03:44:56;100305.09;;;-6.25;95.59
15880;BME280;61999;51.514;14.614;2023-02-03T03:47:31;100304.31;;;-6.41;95.63
15880;BME280;61999;51.514;14.614;2023-02-03T03:50:07;100298.72;;;-5.70;94.20
15880;BME280;61999;51.514;14.614;2023-02-03T03:52:38;100290.50;;;-5.13;92.75
15880;BME280;61999;51.514;14.614;2023-02-03T03:55:10;100282.72;;;-6.04;91.06
15880;BME280;61999;51.514;14.614;2023-02-03T03:57:45;100272.41;;;-5.98;91.59
15880;BME280;61999;51.514;14.614;2023-02-03T04:00:20;100259.41;;;-5.74;90.50
15880;BME280;61999;51.514;14.614;2023-02-03T04:02:54;100244.03;;;-5.78;89.61
15880;BME280;61999;51.514;14.614;2023-02-03T04:05:26;100237.22;;;-5.82;90.00
15880;BME280;61999;51.514;14.614;2023-02-03T04:07:55;100229.47;;;-5.78;92.26
15880;BME280;61999;51.514;14.614;2023-02-03T04:10:34;100222.03;;;-5.19;93.50
15880;BME280;61999;51.514;14.614;2023-02-03T04:13:04;100210.19;;;-5.34;91.74
15880;BME280;61999;51.514;14.614;2023-02-03T04:15:33;100210.72;;;-5.86;91.29
15880;BME280;61999;51.514;14.614;2023-02-03T04:18:02;100186.78;;;-5.08;91.54
15880;BME280;61999;51.514;14.614;2023-02-03T04:20:32;100172.47;;;-4.65;90.41
15880;BME280;61999;51.514;14.614;2023-02-03T04:23:01;100171.50;;;-4.58;89.22
15880;BME280;61999;51.514;14.614;2023-02-03T04:25:29;100159.25;;;-4.42;88.31
15880;BME280;61999;51.514;14.614;2023-02-03T04:27:57;100155.94;;;-4.49;87.29
15880;BME280;61999;51.514;14.614;2023-02-03T04:30:25;100152.63;;;-4.57;86.94
15880;BME280;61999;51.514;14.614;2023-02-03T04:32:54;100135.66;;;-4.67;86.46
15880;BME280;61999;51.514;14.614;2023-02-03T04:35:23;100141.97;;;-5.56;87.83
15880;BME280;61999;51.514;14.614;2023-02-03T04:37:52;100139.63;;;-5.07;88.06
15880;BME280;61999;51.514;14.614;2023-02-03T04:40:20;100143.41;;;-4.70;86.37
15880;BME280;61999;51.514;14.614;2023-02-03T04:42:48;100127.09;;;-4.69;86.90
15880;BME280;61999;51.514;14.614;2023-02-03T04:45:17;100119.06;;;-5.08;87.06
15880;BME280;61999;51.514;14.614;2023-02-03T04:47:51;100124.31;;;-5.88;89.87
15880;BME280;61999;51.514;14.614;2023-02-03T04:50:20;100109.72;;;-5.82;91.17
15880;BME280;61999;51.514;14.614;2023-02-03T04:52:52;100112.03;;;-6.45;93.61
15880;BME280;61999;51.514;14.614;2023-02-03T04:55:24;100112.97;;;-6.55;96.14
15880;BME280;61999;51.514;14.614;2023-02-03T04:57:54;100099.28;;;-6.54;97.88
15880;BME280;61999;51.514;14.614;2023-02-03T05:00:23;100098.94;;;-6.18;98.59
15880;BME280;61999;51.514;14.614;2023-02-03T05:02:51;100099.19;;;-6.42;98.98
15880;BME280;61999;51.514;14.614;2023-02-03T05:05:20;100083.00;;;-6.47;99.62
15880;BME280;61999;51.514;14.614;2023-02-03T05:07:48;100084.59;;;-6.37;99.75
15880;BME280;61999;51.514;14.614;2023-02-03T05:10:18;100086.38;;;-6.44;100.00
15880;BME280;61999;51.514;14.614;2023-02-03T05:12:47;100065.78;;;-6.36;100.00
15880;BME280;61999;51.514;14.614;2023-02-03T05:15:15;100077.81;;;-6.41;100.00
15880;BME280;61999;51.514;14.614;2023-02-03T05:17:43;100072.63;;;-6.35;100.00
15880;BME280;61999;51.514;14.614;2023-02-03T05:20:11;100066.47;;;-6.20;100.00
15880;BME280;61999;51.514;14.614;2023-02-03T05:22:39;100053.66;;;-6.19;100.00
15880;BME280;61999;51.514;14.614;2023-02-03T05:25:08;100042.34;;;-5.99;100.00
15880;BME280;61999;51.514;14.614;2023-02-03T05:27:38;100039.72;;;-5.96;100.00
15880;BME280;61999;51.514;14.614;2023-02-03T05:30:14;100025.22;;;-6.00;100.00
15880;BME280;61999;51.514;14.614;2023-02-03T05:32:42;100024.84;;;-5.69;100.00
15880;BME280;61999;51.514;14.614;2023-02-03T05:35:10;100020.66;;;-5.77;100.00
15880;BME280;61999;51.514;14.614;2023-02-03T05:37:38;100018.88;;;-5.72;100.00
15880;BME280;61999;51.514;14.614;2023-02-03T05:40:08;100027.09;;;-5.45;100.00
15880;BME280;61999;51.514;14.614;2023-02-03T05:42:55;100023.28;;;-5.19;100.00
15880;BME280;61999;51.514;14.614;2023-02-03T05:45:23;100009.94;;;-5.41;100.00
15880;BME280;61999;51.514;14.614;2023-02-03T05:47:51;100007.84;;;-5.16;100.00
15880;BME280;61999;51.514;14.614;2023-02-03T05:50:19;100015.28;;;-4.99;100.00
15880;BME280;61999;51.514;14.614;2023-02-03T05:52:48;100013.72;;;-4.57;100.00
15880;BME280;61999;51.514;14.614;2023-02-03T05:55:16;100012.22;;;-4.21;100.00
15880;BME280;61999;51.514;14.614;2023-02-03T05:57:44;100018.44;;;-4.32;100.00
15880;BME280;61999;51.514;14.614;2023-02-03T06:00:15;100013.25;;;-4.29;100.00
15880;BME280;61999;51.514;14.614;2023-02-03T06:02:43;100016.78;;;-4.35;100.00
15880;BME280;61999;51.514;14.614;2023-02-03T06:05:11;100011.72;;;-3.93;100.00
15880;BME280;61999;51.514;14.614;2023-02-03T06:07:39;100027.06;;;-4.33;100.00
15880;BME280;61999;51.514;14.614;2023-02-03T06:10:09;100030.72;;;-3.99;100.00
15880;BME280;61999;51.514;14.614;2023-02-03T06:12:37;100029.06;;;-3.61;100.00
15880;BME280;61999;51.514;14.614;2023-02-03T06:15:06;100011.53;;;-3.84;100.00
15880;BME280;61999;51.514;14.614;2023-02-03T06:17:36;100013.56;;;-4.00;100.00
15880;BME280;61999;51.514;14.614;2023-02-03T06:20:07;100015.84;;;-3.84;100.00
15880;BME280;61999;51.514;14.614;2023-02-03T06:22:35;100019.34;;;-3.88;100.00
15880;BME280;61999;51.514;14.614;2023-02-03T06:25:05;100002.41;;;-4.00;100.00
15880;BME280;61999;51.514;14.614;2023-02-03T06:27:37;99998.31;;;-4.12;100.00
15880;BME280;61999;51.514;14.614;2023-02-03T06:30:07;99983.09;;;-3.79;100.00
15880;BME280;61999;51.514;14.614;2023-02-03T06:32:40;99992.19;;;-3.24;100.00
15880;BME280;61999;51.514;14.614;2023-02-03T06:35:09;99979.00;;;-3.48;100.00
15880;BME280;61999;51.514;14.614;2023-02-03T06:37:37;99974.28;;;-3.69;100.00
15880;BME280;61999;51.514;14.614;2023-02-03T06:40:06;99981.75;;;-3.57;100.00
15880;BME280;61999;51.514;14.614;2023-02-03T06:42:34;99967.53;;;-3.75;100.00
15880;BME280;61999;51.514;14.614;2023-02-03T06:45:03;99952.25;;;-3.43;100.00
15880;BME280;61999;51.514;14.614;2023-02-03T06:47:31;99944.31;;;-3.34;100.00
15880;BME280;61999;51.514;14.614;2023-02-03T06:50:01;99946.56;;;-3.58;100.00
15880;BME280;61999;51.514;14.614;2023-02-03T06:52:29;99946.00;;;-3.33;100.00
15880;BME280;61999;51.514;14.614;2023-02-03T06:54:57;99946.66;;;-3.25;100.00
15880;BME280;61999;51.514;14.614;2023-02-03T06:57:25;99933.00;;;-3.64;100.00
15880;BME280;61999;51.514;14.614;2023-02-03T06:59:53;99929.75;;;-3.74;100.00
15880;BME280;61999;51.514;14.614;2023-02-03T07:02:21;99916.19;;;-3.82;100.00
15880;BME280;61999;51.514;14.614;2023-02-03T07:04:50;99921.25;;;-3.76;100.00
15880;BME280;61999;51.514;14.614;2023-02-03T07:07:20;99909.16;;;-3.74;100.00
15880;BME280;61999;51.514;14.614;2023-02-03T07:09:48;99905.81;;;-3.79;100.00
15880;BME280;61999;51.514;14.614;2023-02-03T07:12:16;99911.25;;;-3.90;100.00
15880;BME280;61999;51.514;14.614;2023-02-03T07:14:44;99907.53;;;-3.78;100.00
15880;BME280;61999;51.514;14.614;2023-02-03T07:17:13;99915.94;;;-3.70;100.00
15880;BME280;61999;51.514;14.614;2023-02-03T07:19:41;99917.78;;;-3.75;100.00
15880;BME280;61999;51.514;14.614;2023-02-03T07:22:11;99898.59;;;-3.62;100.00
15880;BME280;61999;51.514;14.614;2023-02-03T07:24:41;99913.75;;;-3.50;100.00
15880;BME280;61999;51.514;14.614;2023-02-03T07:27:09;99902.31;;;-3.75;100.00
15880;BME280;61999;51.514;14.614;2023-02-03T07:29:37;99912.25;;;-3.60;100.00
15880;BME280;61999;51.514;14.614;2023-02-03T07:32:05;99899.66;;;-3.72;100.00
15880;BME280;61999;51.514;14.614;2023-02-03T07:34:34;99900.38;;;-3.30;100.00
15880;BME280;61999;51.514;14.614;2023-02-03T07:37:02;99906.03;;;-3.51;100.00
15880;BME280;61999;51.514;14.614;2023-02-03T07:39:30;99898.00;;;-3.37;100.00
15880;BME280;61999;51.514;14.614;2023-02-03T07:42:00;99888.84;;;-3.15;100.00
15880;BME280;61999;51.514;14.614;2023-02-03T07:44:28;99874.31;;;-3.17;100.00
15880;BME280;61999;51.514;14.614;2023-02-03T07:46:56;99876.44;;;-3.33;100.00
15880;BME280;61999;51.514;14.614;2023-02-03T07:49:25;99881.94;;;-3.13;100.00
15880;BME280;61999;51.514;14.614;2023-02-03T07:51:53;99865.88;;;-2.91;100.00
15880;BME280;61999;51.514;14.614;2023-02-03T07:54:22;99876.03;;;-3.18;100.00
15880;BME280;61999;51.514;14.614;2023-02-03T07:56:50;99872.66;;;-2.87;100.00
15880;BME280;61999;51.514;14.614;2023-02-03T07:59:20;99851.63;;;-2.73;100.00
15880;BME280;61999;51.514;14.614;2023-02-03T08:01:48;99858.66;;;-3.11;100.00
15880;BME280;61999;51.514;14.614;2023-02-03T08:04:16;99840.34;;;-3.01;100.00
15880;BME280;61999;51.514;14.614;2023-02-03T08:06:45;99848.00;;;-2.97;100.00
15880;BME280;61999;51.514;14.614;2023-02-03T08:09:13;99845.88;;;-3.49;100.00
15880;BME280;61999;51.514;14.614;2023-02-03T08:11:41;99829.38;;;-3.41;100.00
15880;BME280;61999;51.514;14.614;2023-02-03T08:14:11;99836.81;;;-3.65;100.00
15880;BME280;61999;51.514;14.614;2023-02-03T08:16:41;99826.06;;;-3.47;100.00
15880;BME280;61999;51.514;14.614;2023-02-03T08:19:10;99827.16;;;-3.57;100.00
15880;BME280;61999;51.514;14.614;2023-02-03T08:21:38;99825.84;;;-3.37;100.00
15880;BME280;61999;51.514;14.614;2023-02-03T08:24:06;99815.00;;;-3.50;100.00
15880;BME280;61999;51.514;14.614;2023-02-03T08:26:35;99831.53;;;-3.59;100.00
15880;BME280;61999;51.514;14.614;2023-02-03T08:29:04;99797.97;;;-3.56;100.00
15880;BME280;61999;51.514;14.614;2023-02-03T08:31:35;99807.53;;;-3.61;100.00
15880;BME280;61999;51.514;14.614;2023-02-03T08:34:08;99798.13;;;-3.29;100.00
15880;BME280;61999;51.514;14.614;2023-02-03T08:36:38;99805.75;;;-3.25;100.00
15880;BME280;61999;51.514;14.614;2023-02-03T08:39:09;99802.38;;;-3.61;100.00
15880;BME280;61999;51.514;14.614;2023-02-03T08:41:39;99787.75;;;-3.60;100.00
15880;BME280;61999;51.514;14.614;2023-02-03T08:44:09;99783.59;;;-3.66;100.00
15880;BME280;61999;51.514;14.614;2023-02-03T08:46:38;99786.75;;;-3.55;100.00
15880;BME280;61999;51.514;14.614;2023-02-03T08:49:13;99797.22;;;-3.61;100.00
15880;BME280;61999;51.514;14.614;2023-02-03T08:51:46;99769.06;;;-3.67;100.00
15880;BME280;61999;51.514;14.614;2023-02-03T08:54:16;99761.31;;;-3.67;100.00
15880;BME280;61999;51.514;14.614;2023-02-03T08:56:45;99772.22;;;-3.57;100.00
15880;BME280;61999;51.514;14.614;2023-02-03T08:59:14;99764.47;;;-3.56;100.00
15880;BME280;61999;51.514;14.614;2023-02-03T09:01:45;99765.16;;;-3.49;100.00
15880;BME280;61999;51.514;14.614;2023-02-03T09:04:19;99761.16;;;-3.61;100.00
15880;BME280;61999;51.514;14.614;2023-02-03T09:06:53;99750.78;;;-3.58;100.00
15880;BME280;61999;51.514;14.614;2023-02-03T09:09:28;99757.22;;;-3.41;100.00
15880;BME280;61999;51.514;14.614;2023-02-03T09:12:01;99740.75;;;-3.36;100.00
15880;BME280;61999;51.514;14.614;2023-02-03T09:14:36;99754.03;;;-3.51;100.00
15880;BME280;61999;51.514;14.614;2023-02-03T09:17:06;99731.63;;;-3.48;100.00
15880;BME280;61999;51.514;14.614;2023-02-03T09:19:38;99730.94;;;-3.54;100.00
15880;BME280;61999;51.514;14.614;2023-02-03T09:22:07;99729.34;;;-3.27;100.00
15880;BME280;61999;51.514;14.614;2023-02-03T09:24:38;99711.44;;;-3.32;100.00
15880;BME280;61999;51.514;14.614;2023-02-03T09:27:09;99709.31;;;-3.49;100.00
15880;BME280;61999;51.514;14.614;2023-02-03T09:29:42;99705.31;;;-3.28;100.00
15880;BME280;61999;51.514;14.614;2023-02-03T09:32:12;99710.84;;;-3.41;100.00
15880;BME280;61999;51.514;14.614;2023-02-03T09:34:42;99698.59;;;-3.33;100.00
15880;BME280;61999;51.514;14.614;2023-02-03T09:37:13;99705.69;;;-3.41;100.00
15880;BME280;61999;51.514;14.614;2023-02-03T09:39:41;99686.59;;;-3.34;100.00
15880;BME280;61999;51.514;14.614;2023-02-03T09:42:35;99695.97;;;-3.32;100.00
15880;BME280;61999;51.514;14.614;2023-02-03T09:45:17;99674.22;;;-3.53;100.00
15880;BME280;61999;51.514;14.614;2023-02-03T09:48:01;99672.22;;;-3.43;100.00
15880;BME280;61999;51.514;14.614;2023-02-03T09:50:38;99664.13;;;-3.31;100.00
15880;BME280;61999;51.514;14.614;2023-02-03T09:53:23;99675.63;;;-3.41;100.00
15880;BME280;61999;51.514;14.614;2023-02-03T09:55:54;99666.06;;;-3.37;100.00
15880;BME280;61999;51.514;14.614;2023-02-03T09:58:32;99673.06;;;-3.42;100.00
15880;BME280;61999;51.514;14.614;2023-02-03T10:01:10;99661.00;;;-3.40;100.00
15880;BME280;61999;51.514;14.614;2023-02-03T10:03:50;99634.31;;;-3.39;100.00
15880;BME280;61999;51.514;14.614;2023-02-03T10:06:32;99617.31;;;-3.15;100.00
15880;BME280;61999;51.514;14.614;2023-02-03T10:09:25;99627.47;;;-3.11;100.00
15880;BME280;61999;51.514;14.614;2023-02-03T10:12:29;99605.06;;;-3.09;100.00
15880;BME280;61999;51.514;14.614;2023-02-03T10:15:26;99594.97;;;-3.15;100.00
15880;BME280;61999;51.514;14.614;2023-02-03T10:18:06;99595.84;;;-3.16;100.00
15880;BME280;61999;51.514;14.614;2023-02-03T10:20:41;99584.94;;;-3.24;100.00
15880;BME280;61999;51.514;14.614;2023-02-03T10:23:21;99591.19;;;-3.33;100.00
15880;BME280;61999;51.514;14.614;2023-02-03T10:25:57;99581.72;;;-3.32;100.00
15880;BME280;61999;51.514;14.614;2023-02-03T10:28:36;99560.19;;;-3.30;100.00
15880;BME280;61999;51.514;14.614;2023-02-03T10:31:34;99555.88;;;-3.29;100.00
15880;BME280;61999;51.514;14.614;2023-02-03T10:34:12;99584.94;;;-3.24;100.00
15880;BME280;61999;51.514;14.614;2023-02-03T10:36:54;99545.38;;;-3.23;100.00
15880;BME280;61999;51.514;14.614;2023-02-03T10:39:35;99535.97;;;-3.24;100.00
15880;BME280;61999;51.514;14.614;2023-02-03T10:42:11;99547.41;;;-3.34;100.00
15880;BME280;61999;51.514;14.614;2023-02-03T10:44:50;99542.16;;;-3.31;100.00
15880;BME280;61999;51.514;14.614;2023-02-03T10:47:26;99536.31;;;-3.36;100.00
15880;BME280;61999;51.514;14.614;2023-02-03T10:49:56;99529.66;;;-2.87;100.00
15880;BME280;61999;51.514;14.614;2023-02-03T10:52:30;99513.28;;;-3.13;100.00
15880;BME280;61999;51.514;14.614;2023-02-03T10:55:05;99489.38;;;-3.18;100.00
15880;BME280;61999;51.514;14.614;2023-02-03T10:57:37;99497.44;;;-3.29;100.00
15880;BME280;61999;51.514;14.614;2023-02-03T11:00:22;99486.50;;;-3.37;100.00
15880;BME280;61999;51.514;14.614;2023-02-03T11:03:06;99483.00;;;-3.34;100.00
15880;BME280;61999;51.514;14.614;2023-02-03T11:05:42;99484.53;;;-3.29;100.00
15880;BME280;61999;51.514;14.614;2023-02-03T11:08:14;99477.41;;;-3.20;100.00
15880;BME280;61999;51.514;14.614;2023-02-03T11:10:45;99468.66;;;-3.15;100.00
15880;BME280;61999;51.514;14.614;2023-02-03T11:13:21;99452.78;;;-3.29;100.00
15880;BME280;61999;51.514;14.614;2023-02-03T11:16:00;99452.78;;;-3.29;100.00
15880;BME280;61999;51.514;14.614;2023-02-03T11:18:49;99445.53;;;-3.18;100.00
15880;BME280;61999;51.514;14.614;2023-02-03T11:21:21;99452.38;;;-3.17;100.00
15880;BME280;61999;51.514;14.614;2023-02-03T11:24:00;99426.81;;;-3.23;100.00
15880;BME280;61999;51.514;14.614;2023-02-03T11:26:36;99397.66;;;-3.25;100.00
15880;BME280;61999;51.514;14.614;2023-02-03T11:29:16;99397.25;;;-3.13;100.00
15880;BME280;61999;51.514;14.614;2023-02-03T11:31:53;99405.75;;;-3.11;100.00
15880;BME280;61999;51.514;14.614;2023-02-03T11:34:28;99383.25;;;-2.81;100.00
15880;BME280;61999;51.514;14.614;2023-02-03T11:37:24;99378.56;;;-2.69;100.00
15880;BME280;61999;51.514;14.614;2023-02-03T11:40:24;99382.09;;;-2.72;100.00
15880;BME280;61999;51.514;14.614;2023-02-03T11:43:16;99376.28;;;-2.53;100.00
15880;BME280;61999;51.514;14.614;2023-02-03T11:45:49;99380.72;;;-2.82;100.00
15880;BME280;61999;51.514;14.614;2023-02-03T11:48:30;99370.94;;;-2.72;100.00
15880;BME280;61999;51.514;14.614;2023-02-03T11:51:16;99356.84;;;-2.87;100.00
15880;BME280;61999;51.514;14.614;2023-02-03T11:54:12;99383.00;;;-2.73;100.00
15880;BME280;61999;51.514;14.614;2023-02-03T11:57:11;99353.50;;;-2.66;100.00
15880;BME280;61999;51.514;14.614;2023-02-03T12:00:07;99361.47;;;-2.72;100.00
15880;BME280;61999;51.514;14.614;2023-02-03T12:03:14;99373.56;;;-2.74;100.00
15880;BME280;61999;51.514;14.614;2023-02-03T12:06:20;99357.13;;;-2.71;100.00
15880;BME280;61999;51.514;14.614;2023-02-03T12:09:10;99355.00;;;-2.84;100.00
15880;BME280;61999;51.514;14.614;2023-02-03T12:12:13;99344.09;;;-2.67;100.00
15880;BME280;61999;51.514;14.614;2023-02-03T12:15:00;99361.44;;;-2.47;100.00
15880;BME280;61999;51.514;14.614;2023-02-03T12:17:51;99347.25;;;-2.59;100.00
15880;BME280;61999;51.514;14.614;2023-02-03T12:20:46;99343.53;;;-2.51;100.00
15880;BME280;61999;51.514;14.614;2023-02-03T12:23:39;99343.97;;;-2.40;100.00
15880;BME280;61999;51.514;14.614;2023-02-03T12:26:19;99376.06;;;-2.47;100.00
15880;BME280;61999;51.514;14.614;2023-02-03T12:28:59;99408.81;;;-2.49;100.00
15880;BME280;61999;51.514;14.614;2023-02-03T12:31:37;99481.84;;;-3.24;100.00
15880;BME280;61999;51.514;14.614;2023-02-03T12:34:18;99469.88;;;-3.55;100.00
15880;BME280;61999;51.514;14.614;2023-02-03T12:36:57;99472.66;;;-3.61;100.00
15880;BME280;61999;51.514;14.614;2023-02-03T12:39:35;99477.50;;;-3.80;100.00
15880;BME280;61999;51.514;14.614;2023-02-03T12:42:18;99414.50;;;-3.15;100.00
15880;BME280;61999;51.514;14.614;2023-02-03T12:44:53;99439.91;;;-2.78;100.00
15880;BME280;61999;51.514;14.614;2023-02-03T12:47:31;99451.28;;;-2.83;100.00
15880;BME280;61999;51.514;14.614;2023-02-03T12:50:12;99434.31;;;-2.65;100.00
15880;BME280;61999;51.514;14.614;2023-02-03T12:52:48;99422.59;;;-2.50;100.00
15880;BME280;61999;51.514;14.614;2023-02-03T12:55:27;99432.44;;;-2.37;100.00
15880;BME280;61999;51.514;14.614;2023-02-03T12:58:03;99431.56;;;-2.36;100.00
15880;BME280;61999;51.514;14.614;2023-02-03T13:00:44;99442.00;;;-2.39;99.58
15880;BME280;61999;51.514;14.614;2023-02-03T13:03:22;99447.06;;;-2.61;99.39
15880;BME280;61999;51.514;14.614;2023-02-03T13:06:01;99435.41;;;-2.97;98.98
15880;BME280;61999;51.514;14.614;2023-02-03T13:08:40;99433.34;;;-3.13;99.84
15880;BME280;61999;51.514;14.614;2023-02-03T13:11:19;99444.41;;;-3.09;98.64
15880;BME280;61999;51.514;14.614;2023-02-03T13:13:55;99467.06;;;-2.92;98.62
15880;BME280;61999;51.514;14.614;2023-02-03T13:16:38;99443.25;;;-2.50;98.03
15880;BME280;61999;51.514;14.614;2023-02-03T13:19:17;99448.34;;;-2.47;97.48